createdAt,value
2024-04-01T00:00:53.874Z,10.5137
2024-04-01T00:01:54.825Z,10.4711
2024-04-01T00:02:55.808Z,10.3998
2024-04-01T00:03:56.945Z,10.3726
2024-04-01T00:04:58.045Z,10.3585
2024-04-01T00:05:58.991Z,10.3091
2024-04-01T00:06:59.967Z,10.2683
2024-04-01T00:08:01.072Z,10.1957
2024-04-01T00:09:02.207Z,10.1692
2024-04-01T00:10:03.308Z,10.1341
2024-04-01T00:11:04.454Z,10.0694
2024-04-01T00:12:05.554Z,10.0252
2024-04-01T00:13:06.514Z,10.0026
2024-04-01T00:14:07.481Z,10.0092
2024-04-01T00:15:08.594Z,9.9852
2024-04-01T00:16:09.511Z,9.8804
2024-04-01T00:17:10.447Z,9.8513
2024-04-01T00:18:11.432Z,9.9229
2024-04-01T00:19:12.455Z,9.9380
2024-04-01T00:20:13.410Z,9.9464
2024-04-01T00:21:14.413Z,9.9778
2024-04-01T00:22:15.514Z,10.0219
2024-04-01T00:23:16.614Z,10.0416
2024-04-01T00:24:17.592Z,10.0410
2024-04-01T00:25:18.540Z,10.0481
2024-04-01T00:26:19.642Z,10.0796
2024-04-01T00:27:20.605Z,10.0674
2024-04-01T00:28:21.635Z,10.0576
2024-04-01T00:29:22.714Z,10.0422
2024-04-01T00:30:23.806Z,10.0182
2024-04-01T00:31:24.769Z,9.9786
2024-04-01T00:32:25.735Z,9.9687
2024-04-01T00:33:26.677Z,9.9213
2024-04-01T00:34:33.246Z,9.9049
2024-04-01T00:35:29.835Z,9.9291
2024-04-01T00:36:30.845Z,9.9162
2024-04-01T00:37:31.974Z,9.8391
2024-04-01T00:38:33.092Z,9.8428
2024-04-01T00:39:34.230Z,9.8339
2024-04-01T00:40:35.334Z,9.8164
2024-04-01T00:41:36.445Z,9.8059
2024-04-01T00:42:37.386Z,9.7787
2024-04-01T00:43:38.393Z,9.8351
2024-04-01T00:44:39.314Z,9.9955
2024-04-01T00:45:40.317Z,10.0313
2024-04-01T00:46:41.418Z,10.0400
2024-04-01T00:47:42.343Z,9.9895
2024-04-01T00:48:43.384Z,9.9250
2024-04-01T00:49:44.452Z,9.8810
2024-04-01T00:50:45.400Z,9.8028
2024-04-01T00:51:46.370Z,9.7644
2024-04-01T00:52:47.362Z,9.7765
2024-04-01T00:53:48.323Z,9.7109
2024-04-01T00:54:49.409Z,9.6597
2024-04-01T00:55:50.353Z,9.6151
2024-04-01T00:56:51.320Z,9.6094
2024-04-01T00:57:52.452Z,9.5900
2024-04-01T00:58:53.545Z,9.6019
2024-04-01T00:59:54.493Z,9.5570
2024-04-01T01:00:55.481Z,9.5620
2024-04-01T01:01:56.421Z,9.5916
2024-04-01T01:02:57.406Z,9.6780
2024-04-01T01:03:58.528Z,9.7525
2024-04-01T01:04:59.640Z,9.7789
2024-04-01T01:06:00.770Z,9.8731
2024-04-01T01:07:02.699Z,9.8932
2024-04-01T01:08:03.981Z,9.8450
2024-04-01T01:09:04.900Z,9.8334
2024-04-01T01:10:05.906Z,9.8553
2024-04-01T01:11:07.015Z,9.8213
2024-04-01T01:12:08.120Z,9.8225
2024-04-01T01:13:09.242Z,9.8502
2024-04-01T01:14:10.184Z,9.9675
2024-04-01T01:15:11.157Z,9.9783
2024-04-01T01:16:12.106Z,9.9591
2024-04-01T01:17:13.082Z,10.0684
2024-04-01T01:18:14.032Z,10.1468
2024-04-01T01:19:15.010Z,10.0595
2024-04-01T01:20:15.974Z,10.0101
2024-04-01T01:21:16.926Z,10.0442
2024-04-01T01:22:18.683Z,10.0354
2024-04-01T01:23:19.801Z,10.0723
2024-04-01T01:24:20.927Z,10.0305
2024-04-01T01:25:21.896Z,10.0094
2024-04-01T01:26:22.857Z,9.9916
2024-04-01T01:27:23.890Z,10.0317
2024-04-01T01:28:24.851Z,10.0843
2024-04-01T01:29:25.904Z,10.1579
2024-04-01T01:30:27.044Z,10.1407
2024-04-01T01:31:28.136Z,10.2924
2024-04-01T01:32:29.064Z,10.4272
2024-04-01T01:33:30.099Z,10.4351
2024-04-01T01:34:31.155Z,10.3953
2024-04-01T01:35:32.113Z,10.3319
2024-04-01T01:36:33.078Z,10.2683
2024-04-01T01:37:34.217Z,10.2731
2024-04-01T01:38:35.145Z,10.2673
2024-04-01T01:39:36.125Z,10.2459
2024-04-01T01:40:37.205Z,10.2152
2024-04-01T01:41:38.163Z,10.1783
2024-04-01T01:42:39.106Z,10.0969
2024-04-01T01:43:40.061Z,10.0015
2024-04-01T01:44:41.087Z,9.9475
2024-04-01T01:45:42.054Z,9.8693
2024-04-01T01:46:42.995Z,9.8376
2024-04-01T01:47:43.930Z,9.7768
2024-04-01T01:48:44.921Z,9.6911
2024-04-01T01:49:46.044Z,9.7185
2024-04-01T01:50:47.012Z,9.7186
2024-04-01T01:51:47.968Z,9.6545
2024-04-01T01:52:49.057Z,9.5616
2024-04-01T01:53:49.979Z,9.5327
2024-04-01T01:54:50.980Z,9.5266
2024-04-01T01:55:51.946Z,9.4978
2024-04-01T01:56:52.923Z,9.5419
2024-04-01T01:57:53.885Z,9.8288
2024-04-01T01:58:54.844Z,9.9347
2024-04-01T01:59:55.813Z,9.9413
2024-04-01T02:00:56.752Z,9.8743
2024-04-01T02:01:57.981Z,9.9361
2024-04-01T02:02:58.987Z,9.9162
2024-04-01T02:04:00.127Z,9.8788
2024-04-01T02:05:01.087Z,9.9227
2024-04-01T02:06:02.062Z,10.0858
2024-04-01T02:07:02.973Z,10.2563
2024-04-01T02:08:04.007Z,10.3632
2024-04-01T02:09:04.909Z,10.4171
2024-04-01T02:10:05.907Z,10.3907
2024-04-01T02:11:07.001Z,10.4311
2024-04-01T02:12:07.959Z,10.4502
2024-04-01T02:13:08.934Z,10.4372
2024-04-01T02:14:10.058Z,10.4352
2024-04-01T02:15:11.152Z,10.4343
2024-04-01T02:16:12.118Z,10.4846
2024-04-01T02:17:13.106Z,10.4599
2024-04-01T02:18:14.197Z,10.3901
2024-04-01T02:19:15.155Z,10.4051
2024-04-01T02:20:16.121Z,10.5087
2024-04-01T02:21:17.228Z,10.6206
2024-04-01T02:22:18.152Z,10.6553
2024-04-01T02:23:19.159Z,10.6251
2024-04-01T02:24:20.225Z,10.6501
2024-04-01T02:25:21.187Z,10.6704
2024-04-01T02:26:22.230Z,10.7432
2024-04-01T02:27:23.338Z,10.8155
2024-04-01T02:28:24.472Z,10.8325
2024-04-01T02:29:25.710Z,10.7551
2024-04-01T02:30:26.729Z,10.7620
2024-04-01T02:31:27.872Z,10.7870
2024-04-01T02:32:28.923Z,10.7642
2024-04-01T02:33:29.893Z,10.8255
2024-04-01T02:34:30.880Z,10.8442
2024-04-01T02:35:31.953Z,10.8415
2024-04-01T02:36:34.722Z,10.7907
2024-04-01T02:37:33.740Z,10.7752
2024-04-01T02:38:34.685Z,10.7448
2024-04-01T02:39:35.606Z,10.7022
2024-04-01T02:40:36.606Z,10.6554
2024-04-01T02:41:37.721Z,10.6952
2024-04-01T02:42:38.695Z,10.6520
2024-04-01T02:43:39.640Z,10.5886
2024-04-01T02:44:40.763Z,10.5799
2024-04-01T02:45:41.888Z,10.5935
2024-04-01T02:46:42.833Z,10.6400
2024-04-01T02:47:43.804Z,10.7724
2024-04-01T02:48:44.733Z,10.7538
2024-04-01T02:49:45.731Z,10.7509
2024-04-01T02:50:46.781Z,10.7439
2024-04-01T02:51:47.713Z,10.6660
2024-04-01T02:52:48.778Z,10.6946
2024-04-01T02:53:49.891Z,10.7628
2024-04-01T02:54:51.006Z,10.7669
2024-04-01T02:55:51.964Z,10.7824
2024-04-01T02:56:52.924Z,10.8617
2024-04-01T02:57:53.862Z,10.8228
2024-04-01T02:58:54.846Z,10.8609
2024-04-01T02:59:55.963Z,10.7866
2024-04-01T03:00:57.059Z,10.7238
2024-04-01T03:01:58.050Z,10.7101
2024-04-01T03:02:59.024Z,10.6472
2024-04-01T03:04:00.060Z,10.5403
2024-04-01T03:05:01.038Z,10.4521
2024-04-01T03:06:02.040Z,10.3960
2024-04-01T03:07:03.011Z,10.3397
2024-04-01T03:08:04.959Z,10.2932
2024-04-01T03:09:06.044Z,10.2959
2024-04-01T03:10:07.166Z,10.2569
2024-04-01T03:11:08.130Z,10.2696
2024-04-01T03:12:09.072Z,10.2545
2024-04-01T03:13:10.034Z,10.1624
2024-04-01T03:14:10.998Z,10.0828
2024-04-01T03:15:12.131Z,10.0152
2024-04-01T03:16:13.243Z,9.9780
2024-04-01T03:17:14.344Z,9.9126
2024-04-01T03:18:15.455Z,9.8663
2024-04-01T03:19:16.405Z,9.8486
2024-04-01T03:20:17.405Z,9.8578
2024-04-01T03:21:18.321Z,9.8864
2024-04-01T03:22:19.331Z,9.9299
2024-04-01T03:23:20.480Z,9.8954
2024-04-01T03:24:21.374Z,9.9555
2024-04-01T03:25:22.389Z,10.0221
2024-04-01T03:26:23.474Z,10.0795
2024-04-01T03:27:24.615Z,10.0671
2024-04-01T03:28:25.743Z,10.1146
2024-04-01T03:29:26.851Z,10.1198
2024-04-01T03:30:28.123Z,10.1330
2024-04-01T03:31:29.073Z,10.1058
2024-04-01T03:32:30.201Z,10.0824
2024-04-01T03:33:31.271Z,10.0795
2024-04-01T03:34:32.382Z,10.0538
2024-04-01T03:35:33.344Z,10.0480
2024-04-01T03:36:34.361Z,10.0547
2024-04-01T03:37:35.501Z,10.0148
2024-04-01T03:38:36.602Z,9.9871
2024-04-01T03:39:37.718Z,9.9669
2024-04-01T03:40:38.832Z,9.9506
2024-04-01T03:41:40.729Z,9.9445
2024-04-01T03:42:42.042Z,9.9008
2024-04-01T03:43:43.194Z,9.8861
2024-04-01T03:44:44.299Z,9.8735
2024-04-01T03:45:45.412Z,9.9108
2024-04-01T03:46:46.523Z,9.9372
2024-04-01T03:47:47.610Z,9.9308
2024-04-01T03:48:48.763Z,9.9289
2024-04-01T03:49:49.883Z,9.9170
2024-04-01T03:50:50.985Z,9.9361
2024-04-01T03:51:52.115Z,9.9445
2024-04-01T03:52:53.248Z,9.9703
2024-04-01T03:53:54.290Z,9.9721
2024-04-01T03:54:55.503Z,9.9490
2024-04-01T03:55:56.570Z,9.9460
2024-04-01T03:56:57.721Z,9.9519
2024-04-01T03:57:58.834Z,9.9863
2024-04-01T03:58:59.959Z,9.9943
2024-04-01T04:00:01.047Z,9.9688
2024-04-01T04:01:02.206Z,9.9602
2024-04-01T04:02:03.330Z,9.9803
2024-04-01T04:03:04.458Z,10.0009
2024-04-01T04:04:05.546Z,9.9985
2024-04-01T04:05:06.696Z,9.9934
2024-04-01T04:06:07.816Z,9.9742
2024-04-01T04:07:08.979Z,9.9783
2024-04-01T04:08:10.020Z,10.0021
2024-04-01T04:09:11.175Z,10.0362
2024-04-01T04:10:12.287Z,10.0771
2024-04-01T04:11:13.386Z,10.0645
2024-04-01T04:12:14.518Z,10.0534
2024-04-01T04:13:15.691Z,10.0507
2024-04-01T04:14:16.767Z,10.0130
2024-04-01T04:15:17.887Z,9.9603
2024-04-01T04:16:19.012Z,9.9391
2024-04-01T04:17:20.133Z,9.8923
2024-04-01T04:18:21.256Z,9.8444
2024-04-01T04:19:22.372Z,9.8092
2024-04-01T04:20:23.490Z,9.7610
2024-04-01T04:21:24.624Z,9.7145
2024-04-01T04:22:25.734Z,9.6695
2024-04-01T04:23:26.858Z,9.6377
2024-04-01T04:24:27.985Z,9.5751
2024-04-01T04:25:29.116Z,9.5072
2024-04-01T04:26:30.202Z,9.4506
2024-04-01T04:27:31.359Z,9.3615
2024-04-01T04:28:32.441Z,9.3170
2024-04-01T04:29:33.601Z,9.2010
2024-04-01T04:30:34.689Z,9.1088
2024-04-01T04:31:35.798Z,8.9963
2024-04-01T04:32:36.889Z,8.8720
2024-04-01T04:33:38.042Z,8.7964
2024-04-01T04:34:39.154Z,8.7249
2024-04-01T04:35:40.286Z,8.6375
2024-04-01T04:36:41.399Z,8.5740
2024-04-01T04:37:42.566Z,8.5504
2024-04-01T04:38:43.607Z,8.5312
2024-04-01T04:39:44.723Z,8.4396
2024-04-01T04:40:45.886Z,8.4213
2024-04-01T04:41:47.030Z,8.3836
2024-04-01T04:42:48.121Z,8.4015
2024-04-01T04:43:49.240Z,8.3488
2024-04-01T04:44:50.364Z,8.3185
2024-04-01T04:45:51.516Z,8.2860
2024-04-01T04:46:52.580Z,8.2756
2024-04-01T04:47:53.764Z,8.2909
2024-04-01T04:48:54.840Z,8.2669
2024-04-01T04:49:55.972Z,8.2280
2024-04-01T04:50:57.034Z,8.1903
2024-04-01T04:51:58.002Z,8.1638
2024-04-01T04:52:59.021Z,8.1493
2024-04-01T04:54:00.160Z,8.1415
2024-04-01T04:55:01.251Z,8.1370
2024-04-01T04:56:02.365Z,8.0931
2024-04-01T04:57:03.475Z,8.0960
2024-04-01T04:58:04.613Z,8.0992
2024-04-01T04:59:05.727Z,8.0877
2024-04-01T05:00:06.852Z,8.0464
2024-04-01T05:01:07.987Z,8.0778
2024-04-01T05:02:09.081Z,8.0501
2024-04-01T05:03:10.172Z,8.0459
2024-04-01T05:04:11.313Z,8.0328
2024-04-01T05:05:12.463Z,8.0160
2024-04-01T05:06:13.517Z,8.0148
2024-04-01T05:07:14.541Z,7.9978
2024-04-01T05:08:15.486Z,8.0181
2024-04-01T05:09:16.601Z,7.9854
2024-04-01T05:10:17.753Z,7.9729
2024-04-01T05:11:18.845Z,7.9493
2024-04-01T05:12:19.965Z,7.9280
2024-04-01T05:13:21.086Z,7.9506
2024-04-01T05:14:22.174Z,7.9624
2024-04-01T05:15:23.286Z,7.9425
2024-04-01T05:16:24.443Z,7.9013
2024-04-01T05:17:25.565Z,7.8788
2024-04-01T05:18:26.651Z,7.8589
2024-04-01T05:19:27.803Z,7.8271
2024-04-01T05:20:28.945Z,7.8192
2024-04-01T05:21:30.033Z,7.8452
2024-04-01T05:22:31.112Z,7.8228
2024-04-01T05:23:32.270Z,7.7987
2024-04-01T05:24:33.243Z,7.7925
2024-04-01T05:25:34.266Z,7.7890
2024-04-01T05:26:35.337Z,7.8294
2024-04-01T05:27:36.438Z,7.8288
2024-04-01T05:28:37.562Z,7.8827
2024-04-01T05:29:38.682Z,7.8576
2024-04-01T05:30:39.822Z,7.8790
2024-04-01T05:31:40.913Z,7.9030
2024-04-01T05:32:42.113Z,7.8893
2024-04-01T05:33:43.206Z,7.8560
2024-04-01T05:34:44.293Z,7.8682
2024-04-01T05:35:45.402Z,7.8539
2024-04-01T05:36:46.542Z,7.8714
2024-04-01T05:37:47.628Z,7.8631
2024-04-01T05:38:48.726Z,7.8580
2024-04-01T05:39:49.877Z,7.9135
2024-04-01T05:40:51.007Z,7.9279
2024-04-01T05:41:52.082Z,7.9355
2024-04-01T05:42:53.252Z,7.9182
2024-04-01T05:43:54.373Z,7.9036
2024-04-01T05:44:55.492Z,7.9245
2024-04-01T05:45:56.600Z,7.9092
2024-04-01T05:46:57.745Z,7.9215
2024-04-01T05:47:58.839Z,7.9413
2024-04-01T05:48:59.965Z,7.9524
2024-04-01T05:50:01.079Z,7.9091
2024-04-01T05:51:02.211Z,7.8938
2024-04-01T05:52:03.318Z,7.8975
2024-04-01T05:53:04.421Z,7.9272
2024-04-01T05:54:05.588Z,7.9815
2024-04-01T05:55:06.692Z,7.9738
2024-04-01T05:56:07.756Z,7.9486
2024-04-01T05:57:08.916Z,7.9584
2024-04-01T05:58:10.014Z,8.0423
2024-04-01T05:59:11.178Z,8.0214
2024-04-01T06:00:12.280Z,7.9871
2024-04-01T06:01:13.404Z,8.0405
2024-04-01T06:02:14.546Z,7.9941
2024-04-01T06:03:15.691Z,7.9990
2024-04-01T06:04:16.776Z,7.9742
2024-04-01T06:05:17.850Z,8.0755
2024-04-01T06:06:18.992Z,8.0079
2024-04-01T06:07:20.133Z,8.0320
2024-04-01T06:08:21.237Z,7.9686
2024-04-01T06:09:22.344Z,7.8716
2024-04-01T06:10:23.485Z,7.8937
2024-04-01T06:11:24.629Z,8.0217
2024-04-01T06:12:25.676Z,8.1662
2024-04-01T06:13:26.838Z,8.1809
2024-04-01T06:14:29.510Z,8.1843
2024-04-01T06:15:29.375Z,8.1295
2024-04-01T06:16:30.556Z,8.1188
2024-04-01T06:17:31.657Z,8.1298
2024-04-01T06:18:32.671Z,8.0206
2024-04-01T06:19:33.731Z,8.1048
2024-04-01T06:20:34.683Z,8.2376
2024-04-01T06:21:35.822Z,8.3062
2024-04-01T06:22:36.941Z,8.3056
2024-04-01T06:23:38.040Z,8.2825
2024-04-01T06:24:39.161Z,8.2579
2024-04-01T06:25:40.296Z,8.2847
2024-04-01T06:26:41.539Z,8.2623
2024-04-01T06:27:42.595Z,8.3143
2024-04-01T06:28:43.641Z,8.3975
2024-04-01T06:29:44.716Z,8.5012
2024-04-01T06:30:45.965Z,8.4403
2024-04-01T06:31:46.971Z,8.4594
2024-04-01T06:32:48.132Z,8.4566
2024-04-01T06:33:49.237Z,8.4249
2024-04-01T06:34:50.359Z,8.4262
2024-04-01T06:35:51.511Z,8.4255
2024-04-01T06:36:52.600Z,8.3777
2024-04-01T06:37:53.743Z,8.3682
2024-04-01T06:38:54.846Z,8.3577
2024-04-01T06:39:55.978Z,8.3124
2024-04-01T06:40:57.080Z,8.2149
2024-04-01T06:41:58.205Z,8.1411
2024-04-01T06:42:59.306Z,8.1730
2024-04-01T06:44:00.453Z,8.1643
2024-04-01T06:45:01.578Z,8.0912
2024-04-01T06:46:02.662Z,8.0763
2024-04-01T06:47:03.801Z,8.0683
2024-04-01T06:48:04.921Z,8.2181
2024-04-01T06:49:06.045Z,8.1676
2024-04-01T06:50:07.172Z,8.2697
2024-04-01T06:51:08.285Z,8.3514
2024-04-01T06:52:09.418Z,8.3826
2024-04-01T06:53:10.515Z,8.3516
2024-04-01T06:54:11.671Z,8.2681
2024-04-01T06:55:12.771Z,8.2318
2024-04-01T06:56:13.895Z,8.2238
2024-04-01T06:57:15.003Z,8.2276
2024-04-01T06:58:16.191Z,8.2451
2024-04-01T06:59:17.216Z,8.3007
2024-04-01T07:00:18.383Z,8.3095
2024-04-01T07:01:19.485Z,8.3011
2024-04-01T07:02:20.555Z,8.2459
2024-04-01T07:03:21.725Z,8.2237
2024-04-01T07:04:22.819Z,8.2374
2024-04-01T07:05:23.968Z,8.2424
2024-04-01T07:06:25.093Z,8.2483
2024-04-01T07:07:26.044Z,8.2454
2024-04-01T07:08:27.094Z,8.2599
2024-04-01T07:09:28.132Z,8.2187
2024-04-01T07:10:29.289Z,8.2264
2024-04-01T07:11:30.368Z,8.2269
2024-04-01T07:12:31.495Z,8.2504
2024-04-01T07:13:32.654Z,8.3013
2024-04-01T07:14:33.726Z,8.2952
2024-04-01T07:15:34.863Z,8.2272
2024-04-01T07:16:35.976Z,8.1781
2024-04-01T07:17:37.105Z,8.1153
2024-04-01T07:18:38.198Z,8.0956
2024-04-01T07:19:39.272Z,8.0901
2024-04-01T07:20:40.496Z,8.0868
2024-04-01T07:21:41.519Z,8.1265
2024-04-01T07:22:42.543Z,8.1619
2024-04-01T07:23:43.563Z,8.1632
2024-04-01T07:24:44.617Z,8.1959
2024-04-01T07:25:45.737Z,8.2063
2024-04-01T07:26:46.846Z,8.1605
2024-04-01T07:27:48.088Z,8.1017
2024-04-01T07:28:49.084Z,8.1469
2024-04-01T07:29:50.260Z,8.1609
2024-04-01T07:30:51.319Z,8.1449
2024-04-01T07:31:52.436Z,8.1587
2024-04-01T07:32:55.062Z,8.1730
2024-04-01T07:33:54.056Z,8.1747
2024-04-01T07:34:55.167Z,8.1544
2024-04-01T07:35:56.285Z,8.1588
2024-04-01T07:36:57.402Z,8.1527
2024-04-01T07:37:58.627Z,8.1736
2024-04-01T07:38:59.709Z,8.2067
2024-04-01T07:40:00.770Z,8.2221
2024-04-01T07:41:01.893Z,8.2544
2024-04-01T07:42:03.013Z,8.2495
2024-04-01T07:43:04.124Z,8.2241
2024-04-01T07:44:05.244Z,8.1998
2024-04-01T07:45:06.364Z,8.2221
2024-04-01T07:46:07.544Z,8.2414
2024-04-01T07:47:08.619Z,8.2437
2024-04-01T07:48:09.786Z,8.2325
2024-04-01T07:49:10.903Z,8.2075
2024-04-01T07:50:11.987Z,8.1950
2024-04-01T07:51:13.083Z,8.1472
2024-04-01T07:52:14.268Z,8.1183
2024-04-01T07:53:16.360Z,8.1134
2024-04-01T07:54:16.461Z,8.1093
2024-04-01T07:55:17.639Z,8.0840
2024-04-01T07:56:18.738Z,8.0849
2024-04-01T07:57:19.820Z,8.0760
2024-04-01T07:58:20.944Z,8.0826
2024-04-01T07:59:22.115Z,8.0922
2024-04-01T08:00:23.170Z,8.0833
2024-04-01T08:01:24.272Z,8.1008
2024-04-01T08:02:25.410Z,8.1339
2024-04-01T08:03:26.583Z,8.1808
2024-04-01T08:04:27.684Z,8.2329
2024-04-01T08:05:28.823Z,8.2348
2024-04-01T08:06:29.916Z,8.2379
2024-04-01T08:07:31.013Z,8.2935
2024-04-01T08:08:32.184Z,8.2687
2024-04-01T08:09:33.299Z,8.2783
2024-04-01T08:10:34.381Z,8.2641
2024-04-01T08:11:35.547Z,8.2726
2024-04-01T08:12:36.618Z,8.2607
2024-04-01T08:13:37.750Z,8.2548
2024-04-01T08:14:38.913Z,8.2511
2024-04-01T08:15:39.971Z,8.2502
2024-04-01T08:16:41.102Z,8.2621
2024-04-01T08:17:42.257Z,8.2705
2024-04-01T08:18:43.346Z,8.2696
2024-04-01T08:19:44.500Z,8.2825
2024-04-01T08:20:45.624Z,8.2799
2024-04-01T08:21:46.699Z,8.3038
2024-04-01T08:22:47.818Z,8.3231
2024-04-01T08:23:48.987Z,8.3574
2024-04-01T08:24:50.050Z,8.3717
2024-04-01T08:25:51.244Z,8.4018
2024-04-01T08:26:52.303Z,8.4336
2024-04-01T08:27:53.372Z,8.4149
2024-04-01T08:28:54.595Z,8.4192
2024-04-01T08:29:55.673Z,8.4416
2024-04-01T08:30:56.829Z,8.4625
2024-04-01T08:31:57.898Z,8.4106
2024-04-01T08:32:59.025Z,8.4125
2024-04-01T08:34:00.149Z,8.4516
2024-04-01T08:35:01.248Z,8.4862
2024-04-01T08:36:02.421Z,8.5710
2024-04-01T08:37:03.452Z,8.5428
2024-04-01T08:38:04.652Z,8.5912
2024-04-01T08:39:05.729Z,8.6314
2024-04-01T08:40:06.896Z,8.5773
2024-04-01T08:41:08.022Z,8.5104
2024-04-01T08:42:09.105Z,8.4740
2024-04-01T08:43:10.260Z,8.4838
2024-04-01T08:44:11.375Z,8.4886
2024-04-01T08:45:12.493Z,8.5315
2024-04-01T08:46:13.606Z,8.5254
2024-04-01T08:47:14.719Z,8.5010
2024-04-01T08:48:15.836Z,8.5448
2024-04-01T08:49:16.971Z,8.5698
2024-04-01T08:50:18.109Z,8.5779
2024-04-01T08:51:19.228Z,8.5929
2024-04-01T08:52:20.348Z,8.5723
2024-04-01T08:53:21.450Z,8.5996
2024-04-01T08:54:22.545Z,8.5805
2024-04-01T08:55:23.655Z,8.5963
2024-04-01T08:56:24.754Z,8.5644
2024-04-01T08:57:25.878Z,8.5888
2024-04-01T08:58:27.081Z,8.6170
2024-04-01T08:59:28.122Z,8.6830
2024-04-01T09:00:29.272Z,8.6983
2024-04-01T09:01:30.419Z,8.7246
2024-04-01T09:02:31.536Z,8.7068
2024-04-01T09:03:32.656Z,8.7551
2024-04-01T09:04:33.756Z,8.7669
2024-04-01T09:05:34.950Z,8.7479
2024-04-01T09:06:35.983Z,8.7656
2024-04-01T09:07:37.182Z,8.6973
2024-04-01T09:08:38.269Z,8.6915
2024-04-01T09:09:39.324Z,8.6885
2024-04-01T09:10:40.599Z,8.6593
2024-04-01T09:11:41.736Z,8.6945
2024-04-01T09:12:42.841Z,8.7441
2024-04-01T09:13:43.942Z,8.7550
2024-04-01T09:14:45.216Z,8.6140
2024-04-01T09:15:46.428Z,8.5925
2024-04-01T09:16:47.559Z,8.6329
2024-04-01T09:17:48.599Z,8.6442
2024-04-01T09:18:49.774Z,8.6577
2024-04-01T09:19:50.838Z,8.7623
2024-04-01T09:20:52.025Z,8.7589
2024-04-01T09:21:53.157Z,8.7911
2024-04-01T09:22:54.254Z,8.7764
2024-04-01T09:23:56.107Z,8.7829
2024-04-01T09:24:55.836Z,8.7675
2024-04-01T09:25:56.961Z,8.7334
2024-04-01T09:26:58.137Z,8.7254
2024-04-01T09:27:59.194Z,8.7165
2024-04-01T09:29:00.338Z,8.6982
2024-04-01T09:30:01.468Z,8.6946
2024-04-01T09:31:02.560Z,8.7196
2024-04-01T09:32:03.687Z,8.7496
2024-04-01T09:33:04.823Z,8.7315
2024-04-01T09:34:05.908Z,8.6960
2024-04-01T09:35:07.015Z,8.7387
2024-04-01T09:36:08.133Z,8.7657
2024-04-01T09:37:09.297Z,8.7780
2024-04-01T09:38:10.372Z,8.7479
2024-04-01T09:39:11.551Z,8.7337
2024-04-01T09:40:12.653Z,8.7802
2024-04-01T09:41:13.753Z,8.8227
2024-04-01T09:42:14.899Z,8.7782
2024-04-01T09:43:15.985Z,8.7737
2024-04-01T09:44:17.095Z,8.7452
2024-04-01T09:45:18.242Z,8.8393
2024-04-01T09:46:19.349Z,8.8997
2024-04-01T09:47:20.540Z,8.8657
2024-04-01T09:48:21.311Z,8.9106
2024-04-01T09:49:22.475Z,8.8747
2024-04-01T09:50:23.576Z,8.9404
2024-04-01T09:51:24.863Z,8.9418
2024-04-01T09:52:26.042Z,8.9138
2024-04-01T09:53:27.088Z,8.9201
2024-04-01T09:54:28.283Z,8.9304
2024-04-01T09:55:29.512Z,8.9351
2024-04-01T09:56:30.678Z,8.9351
2024-04-01T09:57:36.648Z,8.9073
2024-04-01T09:58:31.809Z,8.9036
2024-04-01T09:59:33.036Z,8.9617
2024-04-01T10:00:34.096Z,9.0328
2024-04-01T10:01:35.180Z,9.0014
2024-04-01T10:02:36.368Z,9.0537
2024-04-01T10:03:39.323Z,9.1226
2024-04-01T10:04:38.620Z,9.0738
2024-04-01T10:05:39.734Z,9.0683
2024-04-01T10:06:40.855Z,9.0507
2024-04-01T10:07:42.061Z,9.0331
2024-04-01T10:08:43.082Z,9.0099
2024-04-01T10:09:44.215Z,9.0195
2024-04-01T10:10:45.356Z,9.0118
2024-04-01T10:11:46.498Z,8.9053
2024-04-01T10:12:47.531Z,8.8964
2024-04-01T10:13:48.632Z,8.9678
2024-04-01T10:14:49.672Z,8.9612
2024-04-01T10:15:51.388Z,8.9696
2024-04-01T10:16:52.634Z,9.0714
2024-04-01T10:17:53.694Z,9.0784
2024-04-01T10:18:54.793Z,9.0857
2024-04-01T10:19:55.895Z,9.0964
2024-04-01T10:20:56.981Z,9.0556
2024-04-01T10:21:58.101Z,9.0969
2024-04-01T10:22:59.186Z,9.1397
2024-04-01T10:24:00.283Z,9.2123
2024-04-01T10:25:01.346Z,9.3148
2024-04-01T10:26:04.055Z,9.2547
2024-04-01T10:27:03.744Z,9.2861
2024-04-01T10:28:04.863Z,9.3410
2024-04-01T10:29:05.959Z,9.2964
2024-04-01T10:30:07.087Z,9.2209
2024-04-01T10:31:08.181Z,9.1625
2024-04-01T10:32:09.307Z,9.2491
2024-04-01T10:33:10.397Z,9.2203
2024-04-01T10:34:11.485Z,9.2235
2024-04-01T10:35:12.598Z,9.3097
2024-04-01T10:36:23.650Z,9.2959
2024-04-01T10:37:15.969Z,9.3451
2024-04-01T10:38:17.073Z,9.3138
2024-04-01T10:39:18.209Z,9.2273
2024-04-01T10:40:19.287Z,9.2904
2024-04-01T10:41:20.307Z,9.3327
2024-04-01T10:42:21.382Z,9.3620
2024-04-01T10:43:22.461Z,9.3153
2024-04-01T10:44:23.580Z,9.2811
2024-04-01T10:45:24.703Z,9.2639
2024-04-01T10:46:26.583Z,9.3039
2024-04-01T10:47:26.168Z,9.2351
2024-04-01T10:48:27.236Z,9.2369
2024-04-01T10:49:28.348Z,9.2729
2024-04-01T10:50:29.418Z,9.3453
2024-04-01T10:51:30.480Z,9.3151
2024-04-01T10:52:31.596Z,9.2697
2024-04-01T10:53:32.699Z,9.2747
2024-04-01T10:54:33.803Z,9.2795
2024-04-01T10:55:34.924Z,9.2503
2024-04-01T10:56:35.984Z,9.2896
2024-04-01T10:57:37.075Z,9.3537
2024-04-01T10:58:38.176Z,9.3461
2024-04-01T10:59:39.285Z,9.2692
2024-04-01T11:00:40.405Z,9.2140
2024-04-01T11:01:41.516Z,9.1511
2024-04-01T11:02:42.584Z,9.2019
2024-04-01T11:03:43.655Z,9.1871
2024-04-01T11:04:44.735Z,9.2677
2024-04-01T11:05:45.810Z,9.3114
2024-04-01T11:06:46.951Z,9.3259
2024-04-01T11:07:48.064Z,9.4397
2024-04-01T11:08:49.178Z,9.4562
2024-04-01T11:09:50.255Z,9.3542
2024-04-01T11:10:51.337Z,9.3041
2024-04-01T11:11:52.447Z,9.3493
2024-04-01T11:12:53.529Z,9.2547
2024-04-01T11:13:54.621Z,9.1517
2024-04-01T11:14:56.721Z,9.1282
2024-04-01T11:15:57.839Z,9.0730
2024-04-01T11:16:58.953Z,9.0052
2024-04-01T11:18:00.184Z,9.0130
2024-04-01T11:19:01.269Z,9.0177
2024-04-01T11:20:02.384Z,9.0174
2024-04-01T11:21:03.435Z,9.0454
2024-04-01T11:22:04.548Z,9.0033
2024-04-01T11:23:05.597Z,9.0281
2024-04-01T11:24:06.686Z,9.0224
2024-04-01T11:25:07.801Z,8.9799
2024-04-01T11:26:08.902Z,8.9915
2024-04-01T11:27:10.031Z,8.9945
2024-04-01T11:28:11.118Z,8.8932
2024-04-01T11:29:12.193Z,8.7664
2024-04-01T11:30:13.310Z,8.7631
2024-04-01T11:31:14.388Z,8.7865
2024-04-01T11:32:15.517Z,8.7559
2024-04-01T11:33:18.848Z,8.7732
2024-04-01T11:34:17.794Z,8.8056
2024-04-01T11:35:18.825Z,8.8237
2024-04-01T11:36:19.931Z,8.8387
2024-04-01T11:37:21.027Z,8.9145
2024-04-01T11:38:22.102Z,8.8510
2024-04-01T11:39:23.202Z,8.8490
2024-04-01T11:40:24.280Z,8.9019
2024-04-01T11:41:25.389Z,8.9287
2024-04-01T11:42:26.496Z,8.9907
2024-04-01T11:43:27.602Z,9.2797
2024-04-01T11:44:30.865Z,9.3483
2024-04-01T11:45:31.020Z,9.3538
2024-04-01T11:46:32.107Z,9.2886
2024-04-01T11:47:33.213Z,9.3600
2024-04-01T11:48:34.353Z,9.3520
2024-04-01T11:49:35.436Z,9.4047
2024-04-01T11:50:36.586Z,9.3171
2024-04-01T11:51:38.688Z,9.3073
2024-04-01T11:52:39.802Z,9.2838
2024-04-01T11:53:40.947Z,9.3501
2024-04-01T11:54:42.089Z,9.4137
2024-04-01T11:55:43.464Z,9.3420
2024-04-01T11:56:44.588Z,9.3116
2024-04-01T11:57:45.746Z,9.2678
2024-04-01T11:58:46.888Z,9.2247
2024-04-01T11:59:48.307Z,9.3240
2024-04-01T12:00:49.696Z,9.5654
2024-04-01T12:01:50.846Z,9.4756
2024-04-01T12:02:51.942Z,9.4362
2024-04-01T12:03:53.090Z,9.4150
2024-04-01T12:04:54.205Z,9.4057
2024-04-01T12:05:55.397Z,9.5003
2024-04-01T12:06:56.754Z,9.6076
2024-04-01T12:07:57.867Z,9.6556
2024-04-01T12:08:59.010Z,9.6862
2024-04-01T12:10:00.438Z,9.9259
2024-04-01T12:11:01.555Z,9.8563
2024-04-01T12:12:02.697Z,10.0637
2024-04-01T12:13:03.799Z,10.1405
2024-04-01T12:14:05.124Z,10.1509
2024-04-01T12:15:06.271Z,10.2060
2024-04-01T12:16:07.471Z,10.5081
2024-04-01T12:17:08.604Z,10.5548
2024-04-01T12:18:09.737Z,10.2878
2024-04-01T12:19:10.891Z,10.4850
2024-04-01T12:20:12.047Z,10.5346
2024-04-01T12:21:13.389Z,10.6740
2024-04-01T12:22:14.551Z,10.6535
2024-04-01T12:23:15.723Z,10.5687
2024-04-01T12:24:16.909Z,10.6834
2024-04-01T12:25:18.214Z,10.8853
2024-04-01T12:26:19.330Z,10.9956
2024-04-01T12:27:20.497Z,10.8993
2024-04-01T12:28:21.882Z,10.6757
2024-04-01T12:29:23.054Z,10.6823
2024-04-01T12:30:24.209Z,10.6022
2024-04-01T12:31:25.359Z,10.5162
2024-04-01T12:32:26.704Z,10.3730
2024-04-01T12:33:29.928Z,10.3039
2024-04-01T12:34:29.238Z,10.3995
2024-04-01T12:35:30.370Z,10.2465
2024-04-01T12:36:33.160Z,10.0884
2024-04-01T12:37:33.540Z,10.0259